sensor_id;sensor_type;location;lat;lon;timestamp;P1;durP1;ratioP1;P2;durP2;ratioP2
26656;SDS011;14279;50.010;8.260;2023-03-04T00:01:46;70.87;;;29.27;;
26656;SDS011;14279;50.010;8.260;2023-03-04T00:04:12;65.67;;;28.40;;
26656;SDS011;14279;50.010;8.260;2023-03-04T00:06:37;61.27;;;27.60;;
26656;SDS011;14279;50.010;8.260;2023-03-04T00:09:02;85.87;;;29.10;;
26656;SDS011;14279;50.010;8.260;2023-03-04T00:11:28;68.20;;;29.60;;
26656;SDS011;14279;50.010;8.260;2023-03-04T00:13:54;59.80;;;27.03;;
26656;SDS011;14279;50.010;8.260;2023-03-04T00:16:20;59.23;;;28.40;;
26656;SDS011;14279;50.010;8.260;2023-03-04T00:18:45;67.33;;;30.10;;
26656;SDS011;14279;50.010;8.260;2023-03-04T00:21:10;71.17;;;26.90;;
26656;SDS011;14279;50.010;8.260;2023-03-04T00:23:35;64.40;;;28.30;;
26656;SDS011;14279;50.010;8.260;2023-03-04T00:26:01;68.80;;;28.93;;
26656;SDS011;14279;50.010;8.260;2023-03-04T00:28:26;65.50;;;28.80;;
26656;SDS011;14279;50.010;8.260;2023-03-04T00:30:52;75.53;;;28.27;;
26656;SDS011;14279;50.010;8.260;2023-03-04T00:33:17;62.37;;;27.83;;
26656;SDS011;14279;50.010;8.260;2023-03-04T00:35:42;61.00;;;27.37;;
26656;SDS011;14279;50.010;8.260;2023-03-04T00:38:07;64.57;;;27.67;;
26656;SDS011;14279;50.010;8.260;2023-03-04T00:40:33;57.87;;;27.10;;
26656;SDS011;14279;50.010;8.260;2023-03-04T00:42:58;63.80;;;26.60;;
26656;SDS011;14279;50.010;8.260;2023-03-04T00:45:23;60.73;;;27.17;;
26656;SDS011;14279;50.010;8.260;2023-03-04T00:47:49;65.67;;;27.37;;
26656;SDS011;14279;50.010;8.260;2023-03-04T00:50:14;60.13;;;25.60;;
26656;SDS011;14279;50.010;8.260;2023-03-04T00:52:40;58.70;;;25.20;;
26656;SDS011;14279;50.010;8.260;2023-03-04T00:55:05;61.33;;;25.67;;
26656;SDS011;14279;50.010;8.260;2023-03-04T00:57:31;59.57;;;26.47;;
26656;SDS011;14279;50.010;8.260;2023-03-04T00:59:56;62.87;;;26.47;;
26656;SDS011;14279;50.010;8.260;2023-03-04T01:02:22;57.10;;;26.60;;
26656;SDS011;14279;50.010;8.260;2023-03-04T01:04:47;55.07;;;25.90;;
26656;SDS011;14279;50.010;8.260;2023-03-04T01:07:12;65.00;;;28.40;;
26656;SDS011;14279;50.010;8.260;2023-03-04T01:09:37;69.97;;;29.70;;
26656;SDS011;14279;50.010;8.260;2023-03-04T01:12:03;73.67;;;29.80;;
26656;SDS011;14279;50.010;8.260;2023-03-04T01:14:28;60.17;;;27.23;;
26656;SDS011;14279;50.010;8.260;2023-03-04T01:16:53;69.03;;;29.40;;
26656;SDS011;14279;50.010;8.260;2023-03-04T01:19:18;73.40;;;31.43;;
26656;SDS011;14279;50.010;8.260;2023-03-04T01:21:44;68.93;;;28.07;;
26656;SDS011;14279;50.010;8.260;2023-03-04T01:24:09;67.43;;;29.47;;
26656;SDS011;14279;50.010;8.260;2023-03-04T01:26:35;71.80;;;30.93;;
26656;SDS011;14279;50.010;8.260;2023-03-04T01:29:00;71.23;;;30.23;;
26656;SDS011;14279;50.010;8.260;2023-03-04T01:31:26;71.43;;;29.93;;
26656;SDS011;14279;50.010;8.260;2023-03-04T01:33:51;74.57;;;31.47;;
26656;SDS011;14279;50.010;8.260;2023-03-04T01:36:16;67.13;;;29.70;;
26656;SDS011;14279;50.010;8.260;2023-03-04T01:38:42;69.53;;;29.97;;
26656;SDS011;14279;50.010;8.260;2023-03-04T01:41:07;68.23;;;28.90;;
26656;SDS011;14279;50.010;8.260;2023-03-04T01:43:32;75.27;;;29.87;;
26656;SDS011;14279;50.010;8.260;2023-03-04T01:46:00;73.37;;;31.77;;
26656;SDS011;14279;50.010;8.260;2023-03-04T01:48:27;72.17;;;28.73;;
26656;SDS011;14279;50.010;8.260;2023-03-04T01:51:00;69.27;;;27.40;;
26656;SDS011;14279;50.010;8.260;2023-03-04T01:53:30;65.00;;;29.70;;
26656;SDS011;14279;50.010;8.260;2023-03-04T01:55:59;71.67;;;28.73;;
26656;SDS011;14279;50.010;8.260;2023-03-04T01:58:30;66.20;;;29.80;;
26656;SDS011;14279;50.010;8.260;2023-03-04T02:00:56;70.73;;;29.40;;
26656;SDS011;14279;50.010;8.260;2023-03-04T02:03:21;69.93;;;28.67;;
26656;SDS011;14279;50.010;8.260;2023-03-04T02:05:48;64.30;;;28.13;;
26656;SDS011;14279;50.010;8.260;2023-03-04T02:08:15;71.33;;;29.23;;
26656;SDS011;14279;50.010;8.260;2023-03-04T02:10:42;75.83;;;31.07;;
26656;SDS011;14279;50.010;8.260;2023-03-04T02:13:08;68.83;;;28.67;;
26656;SDS011;14279;50.010;8.260;2023-03-04T02:15:35;64.87;;;27.40;;
26656;SDS011;14279;50.010;8.260;2023-03-04T02:18:00;72.87;;;29.93;;
26656;SDS011;14279;50.010;8.260;2023-03-04T02:23:03;60.90;;;27.83;;
26656;SDS011;14279;50.010;8.260;2023-03-04T02:25:43;61.47;;;26.50;;
26656;SDS011;14279;50.010;8.260;2023-03-04T02:28:11;61.97;;;25.87;;
26656;SDS011;14279;50.010;8.260;2023-03-04T02:30:37;66.10;;;29.70;;
26656;SDS011;14279;50.010;8.260;2023-03-04T02:33:02;62.30;;;28.27;;
26656;SDS011;14279;50.010;8.260;2023-03-04T02:35:28;59.53;;;26.33;;
26656;SDS011;14279;50.010;8.260;2023-03-04T02:37:53;62.00;;;27.77;;
26656;SDS011;14279;50.010;8.260;2023-03-04T02:40:23;68.70;;;26.87;;
26656;SDS011;14279;50.010;8.260;2023-03-04T02:42:53;59.37;;;25.97;;
26656;SDS011;14279;50.010;8.260;2023-03-04T02:45:33;61.77;;;27.30;;
26656;SDS011;14279;50.010;8.260;2023-03-04T02:48:01;62.10;;;26.73;;
26656;SDS011;14279;50.010;8.260;2023-03-04T02:50:27;59.50;;;26.53;;
26656;SDS011;14279;50.010;8.260;2023-03-04T02:52:55;63.20;;;25.97;;
26656;SDS011;14279;50.010;8.260;2023-03-04T02:55:20;66.77;;;27.20;;
26656;SDS011;14279;50.010;8.260;2023-03-04T02:57:46;62.53;;;25.00;;
26656;SDS011;14279;50.010;8.260;2023-03-04T03:00:11;61.83;;;26.80;;
26656;SDS011;14279;50.010;8.260;2023-03-04T03:02:37;62.80;;;24.47;;
26656;SDS011;14279;50.010;8.260;2023-03-04T03:05:02;54.80;;;24.70;;
26656;SDS011;14279;50.010;8.260;2023-03-04T03:07:27;57.67;;;26.27;;
26656;SDS011;14279;50.010;8.260;2023-03-04T03:09:53;63.40;;;27.27;;
26656;SDS011;14279;50.010;8.260;2023-03-04T03:12:18;59.27;;;25.20;;
26656;SDS011;14279;50.010;8.260;2023-03-04T03:14:43;59.47;;;27.90;;
26656;SDS011;14279;50.010;8.260;2023-03-04T03:17:08;65.90;;;29.20;;
26656;SDS011;14279;50.010;8.260;2023-03-04T03:19:34;58.80;;;26.23;;
26656;SDS011;14279;50.010;8.260;2023-03-04T03:21:59;56.37;;;24.90;;
26656;SDS011;14279;50.010;8.260;2023-03-04T03:24:25;64.03;;;26.53;;
26656;SDS011;14279;50.010;8.260;2023-03-04T03:26:50;68.73;;;26.20;;
26656;SDS011;14279;50.010;8.260;2023-03-04T03:29:15;66.23;;;26.40;;
26656;SDS011;14279;50.010;8.260;2023-03-04T03:31:40;56.13;;;24.30;;
26656;SDS011;14279;50.010;8.260;2023-03-04T03:34:05;55.60;;;24.40;;
26656;SDS011;14279;50.010;8.260;2023-03-04T03:36:31;57.27;;;25.13;;
26656;SDS011;14279;50.010;8.260;2023-03-04T03:38:56;64.33;;;25.07;;
26656;SDS011;14279;50.010;8.260;2023-03-04T03:41:21;56.50;;;25.33;;
26656;SDS011;14279;50.010;8.260;2023-03-04T03:43:46;57.27;;;25.03;;
26656;SDS011;14279;50.010;8.260;2023-03-04T03:46:12;57.87;;;24.97;;
26656;SDS011;14279;50.010;8.260;2023-03-04T03:48:37;59.87;;;24.97;;
26656;SDS011;14279;50.010;8.260;2023-03-04T03:51:02;54.50;;;25.47;;
26656;SDS011;14279;50.010;8.260;2023-03-04T03:53:27;58.13;;;26.07;;
26656;SDS011;14279;50.010;8.260;2023-03-04T03:55:53;49.93;;;23.47;;
26656;SDS011;14279;50.010;8.260;2023-03-04T03:58:18;49.03;;;24.30;;
26656;SDS011;14279;50.010;8.260;2023-03-04T04:00:44;54.73;;;25.50;;
26656;SDS011;14279;50.010;8.260;2023-03-04T04:03:10;52.17;;;24.20;;
26656;SDS011;14279;50.010;8.260;2023-03-04T04:05:39;55.87;;;23.50;;
26656;SDS011;14279;50.010;8.260;2023-03-04T04:08:05;47.83;;;23.80;;
26656;SDS011;14279;50.010;8.260;2023-03-04T04:10:30;56.27;;;23.67;;
26656;SDS011;14279;50.010;8.260;2023-03-04T04:12:55;53.20;;;24.00;;
26656;SDS011;14279;50.010;8.260;2023-03-04T04:15:20;59.37;;;27.40;;
26656;SDS011;14279;50.010;8.260;2023-03-04T04:17:46;50.33;;;23.50;;
26656;SDS011;14279;50.010;8.260;2023-03-04T04:20:11;53.97;;;24.67;;
26656;SDS011;14279;50.010;8.260;2023-03-04T04:22:36;48.40;;;23.97;;
26656;SDS011;14279;50.010;8.260;2023-03-04T04:25:01;51.10;;;25.00;;
26656;SDS011;14279;50.010;8.260;2023-03-04T04:27:27;49.63;;;25.50;;
26656;SDS011;14279;50.010;8.260;2023-03-04T04:29:52;51.00;;;23.10;;
26656;SDS011;14279;50.010;8.260;2023-03-04T04:32:17;51.93;;;22.87;;
26656;SDS011;14279;50.010;8.260;2023-03-04T04:34:42;52.47;;;24.10;;
26656;SDS011;14279;50.010;8.260;2023-03-04T04:37:08;63.53;;;25.53;;
26656;SDS011;14279;50.010;8.260;2023-03-04T04:39:33;50.20;;;23.73;;
26656;SDS011;14279;50.010;8.260;2023-03-04T04:41:58;54.30;;;25.23;;
26656;SDS011;14279;50.010;8.260;2023-03-04T04:44:24;58.20;;;26.10;;
26656;SDS011;14279;50.010;8.260;2023-03-04T04:46:49;49.73;;;24.43;;
26656;SDS011;14279;50.010;8.260;2023-03-04T04:49:14;59.77;;;25.00;;
26656;SDS011;14279;50.010;8.260;2023-03-04T04:51:39;47.20;;;24.33;;
26656;SDS011;14279;50.010;8.260;2023-03-04T04:54:05;54.67;;;25.63;;
26656;SDS011;14279;50.010;8.260;2023-03-04T04:56:31;49.10;;;26.67;;
26656;SDS011;14279;50.010;8.260;2023-03-04T04:58:57;53.77;;;26.10;;
26656;SDS011;14279;50.010;8.260;2023-03-04T05:01:24;56.50;;;26.00;;
26656;SDS011;14279;50.010;8.260;2023-03-04T05:03:50;50.00;;;29.57;;
26656;SDS011;14279;50.010;8.260;2023-03-04T05:06:17;56.37;;;29.57;;
26656;SDS011;14279;50.010;8.260;2023-03-04T05:08:43;49.53;;;27.20;;
26656;SDS011;14279;50.010;8.260;2023-03-04T05:11:08;49.70;;;25.80;;
26656;SDS011;14279;50.010;8.260;2023-03-04T05:13:34;53.10;;;26.07;;
26656;SDS011;14279;50.010;8.260;2023-03-04T05:15:59;48.20;;;27.77;;
26656;SDS011;14279;50.010;8.260;2023-03-04T05:18:25;47.00;;;26.70;;
26656;SDS011;14279;50.010;8.260;2023-03-04T05:20:52;49.33;;;25.57;;
26656;SDS011;14279;50.010;8.260;2023-03-04T05:23:18;48.93;;;25.87;;
26656;SDS011;14279;50.010;8.260;2023-03-04T05:25:44;56.90;;;26.17;;
26656;SDS011;14279;50.010;8.260;2023-03-04T05:28:09;58.33;;;28.37;;
26656;SDS011;14279;50.010;8.260;2023-03-04T05:30:36;59.13;;;27.80;;
26656;SDS011;14279;50.010;8.260;2023-03-04T05:33:06;54.23;;;27.73;;
26656;SDS011;14279;50.010;8.260;2023-03-04T05:35:33;48.67;;;25.03;;
26656;SDS011;14279;50.010;8.260;2023-03-04T05:38:02;51.10;;;27.97;;
26656;SDS011;14279;50.010;8.260;2023-03-04T05:40:29;48.40;;;27.47;;
26656;SDS011;14279;50.010;8.260;2023-03-04T05:42:55;46.60;;;26.80;;
26656;SDS011;14279;50.010;8.260;2023-03-04T05:45:21;50.10;;;25.67;;
26656;SDS011;14279;50.010;8.260;2023-03-04T05:47:46;51.70;;;27.60;;
26656;SDS011;14279;50.010;8.260;2023-03-04T05:50:15;53.63;;;25.73;;
26656;SDS011;14279;50.010;8.260;2023-03-04T05:52:40;45.37;;;24.80;;
26656;SDS011;14279;50.010;8.260;2023-03-04T05:55:06;49.03;;;23.50;;
26656;SDS011;14279;50.010;8.260;2023-03-04T05:57:31;46.47;;;23.13;;
26656;SDS011;14279;50.010;8.260;2023-03-04T05:59:56;48.10;;;23.20;;
26656;SDS011;14279;50.010;8.260;2023-03-04T06:02:22;43.00;;;23.07;;
26656;SDS011;14279;50.010;8.260;2023-03-04T06:04:47;35.60;;;21.17;;
26656;SDS011;14279;50.010;8.260;2023-03-04T06:07:12;57.10;;;22.60;;
26656;SDS011;14279;50.010;8.260;2023-03-04T06:09:37;49.17;;;22.67;;
26656;SDS011;14279;50.010;8.260;2023-03-04T06:12:03;59.03;;;23.23;;
26656;SDS011;14279;50.010;8.260;2023-03-04T06:14:28;39.40;;;21.57;;
26656;SDS011;14279;50.010;8.260;2023-03-04T06:16:53;46.03;;;22.30;;
26656;SDS011;14279;50.010;8.260;2023-03-04T06:19:19;35.40;;;19.27;;
26656;SDS011;14279;50.010;8.260;2023-03-04T06:21:44;42.67;;;21.47;;
26656;SDS011;14279;50.010;8.260;2023-03-04T06:24:09;39.00;;;20.70;;
26656;SDS011;14279;50.010;8.260;2023-03-04T06:26:34;48.70;;;20.47;;
26656;SDS011;14279;50.010;8.260;2023-03-04T06:29:00;36.30;;;19.87;;
26656;SDS011;14279;50.010;8.260;2023-03-04T06:31:25;45.13;;;21.20;;
26656;SDS011;14279;50.010;8.260;2023-03-04T06:33:50;41.63;;;20.43;;
26656;SDS011;14279;50.010;8.260;2023-03-04T06:36:15;41.37;;;20.50;;
26656;SDS011;14279;50.010;8.260;2023-03-04T06:38:41;47.47;;;20.20;;
26656;SDS011;14279;50.010;8.260;2023-03-04T06:41:07;38.03;;;18.33;;
26656;SDS011;14279;50.010;8.260;2023-03-04T06:43:36;52.57;;;18.83;;
26656;SDS011;14279;50.010;8.260;2023-03-04T06:46:02;53.53;;;20.17;;
26656;SDS011;14279;50.010;8.260;2023-03-04T06:48:28;33.53;;;17.10;;
26656;SDS011;14279;50.010;8.260;2023-03-04T06:50:54;41.70;;;18.80;;
26656;SDS011;14279;50.010;8.260;2023-03-04T06:53:19;42.53;;;18.07;;
26656;SDS011;14279;50.010;8.260;2023-03-04T06:55:45;38.13;;;18.43;;
26656;SDS011;14279;50.010;8.260;2023-03-04T06:58:10;53.93;;;19.27;;
26656;SDS011;14279;50.010;8.260;2023-03-04T07:00:36;36.27;;;16.97;;
26656;SDS011;14279;50.010;8.260;2023-03-04T07:03:01;39.23;;;18.10;;
26656;SDS011;14279;50.010;8.260;2023-03-04T07:05:26;42.57;;;16.63;;
26656;SDS011;14279;50.010;8.260;2023-03-04T07:07:52;33.80;;;17.00;;
26656;SDS011;14279;50.010;8.260;2023-03-04T07:10:17;42.77;;;18.03;;
26656;SDS011;14279;50.010;8.260;2023-03-04T07:12:43;30.27;;;17.07;;
26656;SDS011;14279;50.010;8.260;2023-03-04T07:18:31;32.43;;;16.50;;
26656;SDS011;14279;50.010;8.260;2023-03-04T07:20:58;40.30;;;18.47;;
26656;SDS011;14279;50.010;8.260;2023-03-04T07:26:46;34.13;;;15.43;;
26656;SDS011;14279;50.010;8.260;2023-03-04T07:29:12;32.97;;;14.70;;
26656;SDS011;14279;50.010;8.260;2023-03-04T07:31:37;37.03;;;15.10;;
26656;SDS011;14279;50.010;8.260;2023-03-04T07:34:06;37.37;;;15.93;;
26656;SDS011;14279;50.010;8.260;2023-03-04T07:36:38;38.40;;;15.00;;
26656;SDS011;14279;50.010;8.260;2023-03-04T07:39:04;38.27;;;15.50;;
26656;SDS011;14279;50.010;8.260;2023-03-04T07:44:25;37.03;;;15.87;;
26656;SDS011;14279;50.010;8.260;2023-03-04T07:46:50;27.43;;;14.50;;
26656;SDS011;14279;50.010;8.260;2023-03-04T07:49:22;32.77;;;15.27;;
26656;SDS011;14279;50.010;8.260;2023-03-04T07:51:50;34.73;;;14.00;;
26656;SDS011;14279;50.010;8.260;2023-03-04T07:54:15;39.03;;;15.27;;
26656;SDS011;14279;50.010;8.260;2023-03-04T07:56:40;33.87;;;14.87;;
26656;SDS011;14279;50.010;8.260;2023-03-04T07:59:06;35.93;;;14.80;;
26656;SDS011;14279;50.010;8.260;2023-03-04T08:04:36;37.87;;;15.90;;
26656;SDS011;14279;50.010;8.260;2023-03-04T08:07:01;37.47;;;15.77;;
26656;SDS011;14279;50.010;8.260;2023-03-04T08:09:26;34.27;;;16.23;;
26656;SDS011;14279;50.010;8.260;2023-03-04T08:11:52;35.93;;;16.03;;
26656;SDS011;14279;50.010;8.260;2023-03-04T08:14:17;29.70;;;13.27;;
26656;SDS011;14279;50.010;8.260;2023-03-04T08:16:54;38.23;;;14.80;;
26656;SDS011;14279;50.010;8.260;2023-03-04T08:19:20;42.10;;;14.20;;
26656;SDS011;14279;50.010;8.260;2023-03-04T08:21:45;31.70;;;13.23;;
26656;SDS011;14279;50.010;8.260;2023-03-04T08:27:30;35.07;;;14.27;;
26656;SDS011;14279;50.010;8.260;2023-03-04T09:21:44;30.60;;;11.80;;
26656;SDS011;14279;50.010;8.260;2023-03-04T09:24:09;25.20;;;11.93;;
26656;SDS011;14279;50.010;8.260;2023-03-04T09:26:34;25.57;;;11.07;;
26656;SDS011;14279;50.010;8.260;2023-03-04T09:29:00;43.83;;;12.73;;
26656;SDS011;14279;50.010;8.260;2023-03-04T09:31:26;26.90;;;11.97;;
26656;SDS011;14279;50.010;8.260;2023-03-04T09:34:17;20.80;;;10.37;;
26656;SDS011;14279;50.010;8.260;2023-03-04T09:36:49;22.90;;;10.40;;
26656;SDS011;14279;50.010;8.260;2023-03-04T09:39:14;25.57;;;10.37;;
26656;SDS011;14279;50.010;8.260;2023-03-04T09:41:43;33.27;;;11.33;;
26656;SDS011;14279;50.010;8.260;2023-03-04T09:44:14;39.67;;;11.57;;
26656;SDS011;14279;50.010;8.260;2023-03-04T09:46:45;41.80;;;10.23;;
26656;SDS011;14279;50.010;8.260;2023-03-04T09:49:12;22.90;;;11.20;;
26656;SDS011;14279;50.010;8.260;2023-03-04T09:51:40;23.27;;;9.33;;
26656;SDS011;14279;50.010;8.260;2023-03-04T09:56:59;23.90;;;10.03;;
26656;SDS011;14279;50.010;8.260;2023-03-04T09:59:40;33.37;;;11.33;;
26656;SDS011;14279;50.010;8.260;2023-03-04T10:35:50;25.40;;;8.90;;
26656;SDS011;14279;50.010;8.260;2023-03-04T10:59:38;28.87;;;9.47;;
26656;SDS011;14279;50.010;8.260;2023-03-04T11:02:28;21.83;;;8.13;;
26656;SDS011;14279;50.010;8.260;2023-03-04T11:09:37;23.97;;;9.03;;
26656;SDS011;14279;50.010;8.260;2023-03-04T11:19:22;25.10;;;8.10;;
26656;SDS011;14279;50.010;8.260;2023-03-04T11:36:48;20.80;;;7.40;;
26656;SDS011;14279;50.010;8.260;2023-03-04T11:40:25;27.43;;;7.10;;
26656;SDS011;14279;50.010;8.260;2023-03-04T12:14:01;20.33;;;7.00;;
26656;SDS011;14279;50.010;8.260;2023-03-04T12:36:37;15.27;;;6.37;;
26656;SDS011;14279;50.010;8.260;2023-03-04T12:39:29;11.30;;;5.90;;
26656;SDS011;14279;50.010;8.260;2023-03-04T12:47:37;10.60;;;5.30;;
26656;SDS011;14279;50.010;8.260;2023-03-04T12:53:52;11.40;;;5.90;;
26656;SDS011;14279;50.010;8.260;2023-03-04T12:58:56;16.00;;;5.57;;
26656;SDS011;14279;50.010;8.260;2023-03-04T13:01:25;11.13;;;5.63;;
26656;SDS011;14279;50.010;8.260;2023-03-04T13:04:17;9.70;;;5.40;;
26656;SDS011;14279;50.010;8.260;2023-03-04T13:09:33;11.57;;;4.93;;
26656;SDS011;14279;50.010;8.260;2023-03-04T13:23:26;11.50;;;5.13;;
26656;SDS011;14279;50.010;8.260;2023-03-04T13:31:10;10.10;;;4.87;;
26656;SDS011;14279;50.010;8.260;2023-03-04T13:33:39;13.10;;;5.20;;
26656;SDS011;14279;50.010;8.260;2023-03-04T13:36:26;14.17;;;6.57;;
26656;SDS011;14279;50.010;8.260;2023-03-04T13:38:58;11.50;;;6.20;;
26656;SDS011;14279;50.010;8.260;2023-03-04T13:41:30;18.97;;;5.93;;
26656;SDS011;14279;50.010;8.260;2023-03-04T13:43:57;13.60;;;6.10;;
26656;SDS011;14279;50.010;8.260;2023-03-04T13:46:39;14.27;;;6.33;;
26656;SDS011;14279;50.010;8.260;2023-03-04T13:49:13;9.97;;;5.67;;
26656;SDS011;14279;50.010;8.260;2023-03-04T13:51:44;10.40;;;6.17;;
26656;SDS011;14279;50.010;8.260;2023-03-04T14:00:02;12.73;;;6.27;;
26656;SDS011;14279;50.010;8.260;2023-03-04T14:02:32;8.37;;;5.20;;
26656;SDS011;14279;50.010;8.260;2023-03-04T14:04:59;17.40;;;6.50;;
26656;SDS011;14279;50.010;8.260;2023-03-04T14:07:27;10.40;;;6.23;;
26656;SDS011;14279;50.010;8.260;2023-03-04T14:09:58;14.17;;;6.17;;
26656;SDS011;14279;50.010;8.260;2023-03-04T14:12:25;9.23;;;5.20;;
26656;SDS011;14279;50.010;8.260;2023-03-04T14:14:56;12.97;;;5.27;;
26656;SDS011;14279;50.010;8.260;2023-03-04T14:17:29;14.63;;;5.93;;
26656;SDS011;14279;50.010;8.260;2023-03-04T14:20:00;15.40;;;6.20;;
26656;SDS011;14279;50.010;8.260;2023-03-04T14:25:49;18.27;;;5.80;;
26656;SDS011;14279;50.010;8.260;2023-03-04T14:28:25;14.30;;;5.53;;
26656;SDS011;14279;50.010;8.260;2023-03-04T14:30:51;15.90;;;6.63;;
26656;SDS011;14279;50.010;8.260;2023-03-04T14:33:27;11.17;;;5.57;;
26656;SDS011;14279;50.010;8.260;2023-03-04T14:35:55;12.70;;;5.37;;
26656;SDS011;14279;50.010;8.260;2023-03-04T14:38:27;13.23;;;6.00;;
26656;SDS011;14279;50.010;8.260;2023-03-04T14:41:01;11.20;;;5.13;;
26656;SDS011;14279;50.010;8.260;2023-03-04T14:43:36;12.73;;;5.70;;
26656;SDS011;14279;50.010;8.260;2023-03-04T14:46:10;15.40;;;7.13;;
26656;SDS011;14279;50.010;8.260;2023-03-04T14:48:57;13.90;;;6.60;;
26656;SDS011;14279;50.010;8.260;2023-03-04T14:54:26;11.23;;;5.90;;
26656;SDS011;14279;50.010;8.260;2023-03-04T14:56:53;16.73;;;6.30;;
26656;SDS011;14279;50.010;8.260;2023-03-04T14:59:29;22.50;;;7.33;;
26656;SDS011;14279;50.010;8.260;2023-03-04T15:04:44;17.40;;;6.70;;
26656;SDS011;14279;50.010;8.260;2023-03-04T15:07:14;12.37;;;7.03;;
26656;SDS011;14279;50.010;8.260;2023-03-04T15:09:48;14.97;;;7.60;;
26656;SDS011;14279;50.010;8.260;2023-03-04T15:12:20;18.67;;;7.60;;
26656;SDS011;14279;50.010;8.260;2023-03-04T15:14:58;19.57;;;7.60;;
26656;SDS011;14279;50.010;8.260;2023-03-04T15:20:21;14.23;;;7.60;;
26656;SDS011;14279;50.010;8.260;2023-03-04T15:25:15;18.30;;;6.73;;
26656;SDS011;14279;50.010;8.260;2023-03-04T15:27:42;12.70;;;6.80;;
26656;SDS011;14279;50.010;8.260;2023-03-04T15:30:30;15.10;;;7.53;;
26656;SDS011;14279;50.010;8.260;2023-03-04T15:32:56;16.10;;;7.90;;
26656;SDS011;14279;50.010;8.260;2023-03-04T15:35:23;16.53;;;7.60;;
26656;SDS011;14279;50.010;8.260;2023-03-04T15:37:50;18.47;;;6.77;;
26656;SDS011;14279;50.010;8.260;2023-03-04T15:42:57;21.30;;;6.97;;
26656;SDS011;14279;50.010;8.260;2023-03-04T15:45:26;15.50;;;7.00;;
26656;SDS011;14279;50.010;8.260;2023-03-04T15:47:56;25.50;;;6.40;;
26656;SDS011;14279;50.010;8.260;2023-03-04T15:50:22;14.77;;;7.57;;
26656;SDS011;14279;50.010;8.260;2023-03-04T15:52:53;17.87;;;6.50;;
26656;SDS011;14279;50.010;8.260;2023-03-04T15:55:22;16.87;;;7.77;;
26656;SDS011;14279;50.010;8.260;2023-03-04T15:57:49;9.17;;;5.60;;
26656;SDS011;14279;50.010;8.260;2023-03-04T16:00:18;10.73;;;6.63;;
26656;SDS011;14279;50.010;8.260;2023-03-04T16:02:45;14.63;;;5.97;;
26656;SDS011;14279;50.010;8.260;2023-03-04T16:05:11;14.23;;;6.57;;
26656;SDS011;14279;50.010;8.260;2023-03-04T16:07:37;9.73;;;5.97;;
26656;SDS011;14279;50.010;8.260;2023-03-04T16:10:11;13.90;;;6.87;;
26656;SDS011;14279;50.010;8.260;2023-03-04T16:12:44;10.60;;;7.30;;
26656;SDS011;14279;50.010;8.260;2023-03-04T16:15:17;10.30;;;6.50;;
26656;SDS011;14279;50.010;8.260;2023-03-04T16:17:51;10.93;;;7.00;;
26656;SDS011;14279;50.010;8.260;2023-03-04T16:20:18;16.93;;;7.50;;
26656;SDS011;14279;50.010;8.260;2023-03-04T16:22:48;15.33;;;7.70;;
26656;SDS011;14279;50.010;8.260;2023-03-04T16:25:18;13.87;;;7.00;;
26656;SDS011;14279;50.010;8.260;2023-03-04T16:27:44;11.43;;;6.23;;
26656;SDS011;14279;50.010;8.260;2023-03-04T16:30:17;8.90;;;6.33;;
26656;SDS011;14279;50.010;8.260;2023-03-04T16:32:45;10.87;;;7.20;;
26656;SDS011;14279;50.010;8.260;2023-03-04T16:35:11;13.07;;;7.10;;
26656;SDS011;14279;50.010;8.260;2023-03-04T16:37:40;12.57;;;7.20;;
26656;SDS011;14279;50.010;8.260;2023-03-04T16:40:06;11.17;;;6.37;;
26656;SDS011;14279;50.010;8.260;2023-03-04T16:42:41;12.50;;;7.47;;
26656;SDS011;14279;50.010;8.260;2023-03-04T16:45:23;12.23;;;7.23;;
26656;SDS011;14279;50.010;8.260;2023-03-04T16:47:50;12.40;;;7.33;;
26656;SDS011;14279;50.010;8.260;2023-03-04T16:50:20;14.20;;;6.87;;
26656;SDS011;14279;50.010;8.260;2023-03-04T16:52:52;11.30;;;6.37;;
26656;SDS011;14279;50.010;8.260;2023-03-04T16:55:27;14.07;;;6.80;;
26656;SDS011;14279;50.010;8.260;2023-03-04T16:57:54;11.80;;;6.80;;
26656;SDS011;14279;50.010;8.260;2023-03-04T17:00:22;11.57;;;6.50;;
26656;SDS011;14279;50.010;8.260;2023-03-04T17:03:01;12.10;;;6.83;;
26656;SDS011;14279;50.010;8.260;2023-03-04T17:05:31;10.40;;;6.73;;
26656;SDS011;14279;50.010;8.260;2023-03-04T17:07:57;13.53;;;7.33;;
26656;SDS011;14279;50.010;8.260;2023-03-04T17:10:23;9.50;;;7.00;;
26656;SDS011;14279;50.010;8.260;2023-03-04T17:12:52;19.10;;;6.60;;
26656;SDS011;14279;50.010;8.260;2023-03-04T17:15:18;11.20;;;8.00;;
26656;SDS011;14279;50.010;8.260;2023-03-04T17:17:43;17.17;;;7.07;;
26656;SDS011;14279;50.010;8.260;2023-03-04T17:20:13;12.73;;;7.77;;
26656;SDS011;14279;50.010;8.260;2023-03-04T17:22:41;13.27;;;7.17;;
26656;SDS011;14279;50.010;8.260;2023-03-04T17:25:07;12.07;;;7.03;;
26656;SDS011;14279;50.010;8.260;2023-03-04T17:27:32;12.23;;;7.20;;
26656;SDS011;14279;50.010;8.260;2023-03-04T17:29:57;9.40;;;7.40;;
26656;SDS011;14279;50.010;8.260;2023-03-04T17:32:28;10.47;;;6.60;;
26656;SDS011;14279;50.010;8.260;2023-03-04T17:34:57;9.70;;;7.20;;
26656;SDS011;14279;50.010;8.260;2023-03-04T17:37:23;11.80;;;7.13;;
26656;SDS011;14279;50.010;8.260;2023-03-04T17:39:49;17.00;;;8.77;;
26656;SDS011;14279;50.010;8.260;2023-03-04T17:42:15;11.67;;;7.60;;
26656;SDS011;14279;50.010;8.260;2023-03-04T17:44:40;19.60;;;8.60;;
26656;SDS011;14279;50.010;8.260;2023-03-04T17:47:06;12.93;;;8.13;;
26656;SDS011;14279;50.010;8.260;2023-03-04T17:49:34;10.47;;;7.63;;
26656;SDS011;14279;50.010;8.260;2023-03-04T17:52:02;14.00;;;8.73;;
26656;SDS011;14279;50.010;8.260;2023-03-04T17:54:31;14.30;;;9.27;;
26656;SDS011;14279;50.010;8.260;2023-03-04T17:57:20;11.60;;;7.83;;
26656;SDS011;14279;50.010;8.260;2023-03-04T17:59:46;15.30;;;8.13;;
26656;SDS011;14279;50.010;8.260;2023-03-04T18:02:16;11.20;;;7.30;;
26656;SDS011;14279;50.010;8.260;2023-03-04T18:04:44;16.57;;;8.90;;
26656;SDS011;14279;50.010;8.260;2023-03-04T18:07:12;16.43;;;7.77;;
26656;SDS011;14279;50.010;8.260;2023-03-04T18:09:40;11.60;;;7.97;;
26656;SDS011;14279;50.010;8.260;2023-03-04T18:12:07;11.80;;;7.80;;
26656;SDS011;14279;50.010;8.260;2023-03-04T18:14:32;13.83;;;8.00;;
26656;SDS011;14279;50.010;8.260;2023-03-04T18:16:57;12.87;;;7.90;;
26656;SDS011;14279;50.010;8.260;2023-03-04T18:19:23;10.80;;;7.90;;
26656;SDS011;14279;50.010;8.260;2023-03-04T18:21:48;18.70;;;6.70;;
26656;SDS011;14279;50.010;8.260;2023-03-04T18:27:24;10.90;;;7.23;;
26656;SDS011;14279;50.010;8.260;2023-03-04T18:29:49;12.40;;;7.40;;
26656;SDS011;14279;50.010;8.260;2023-03-04T18:32:15;13.63;;;6.87;;
26656;SDS011;14279;50.010;8.260;2023-03-04T18:34:46;11.73;;;8.10;;
26656;SDS011;14279;50.010;8.260;2023-03-04T18:37:11;13.50;;;7.27;;
26656;SDS011;14279;50.010;8.260;2023-03-04T18:39:37;11.73;;;7.27;;
26656;SDS011;14279;50.010;8.260;2023-03-04T18:42:05;12.40;;;7.30;;
26656;SDS011;14279;50.010;8.260;2023-03-04T18:44:31;13.83;;;7.33;;
26656;SDS011;14279;50.010;8.260;2023-03-04T18:46:57;12.40;;;6.97;;
26656;SDS011;14279;50.010;8.260;2023-03-04T18:53:02;13.40;;;7.30;;
26656;SDS011;14279;50.010;8.260;2023-03-04T18:55:38;15.03;;;6.80;;
26656;SDS011;14279;50.010;8.260;2023-03-04T19:08:01;9.70;;;6.00;;